sensor_id;sensor_type;location;lat;lon;timestamp;pressure;altitude;pressure_sealevel;temperature;humidity
66887;BME280;53798;51.680;5.976;2022-10-23T00:01:44;101352.16;;;11.56;92.79
66887;BME280;53798;51.680;5.976;2022-10-23T00:04:18;101353.94;;;11.56;92.95
66887;BME280;53798;51.680;5.976;2022-10-23T00:06:48;101350.50;;;11.54;92.96
66887;BME280;53798;51.680;5.976;2022-10-23T00:09:18;101341.69;;;11.53;93.32
66887;BME280;53798;51.680;5.976;2022-10-23T00:11:48;101330.34;;;11.49;93.52
66887;BME280;53798;51.680;5.976;2022-10-23T00:14:22;101320.63;;;11.50;93.43
66887;BME280;53798;51.680;5.976;2022-10-23T00:16:51;101327.75;;;11.48;93.64
66887;BME280;53798;51.680;5.976;2022-10-23T00:19:18;101326.84;;;11.49;93.70
66887;BME280;53798;51.680;5.976;2022-10-23T00:21:45;101322.47;;;11.48;93.76
66887;BME280;53798;51.680;5.976;2022-10-23T00:24:12;101315.41;;;11.48;93.80
66887;BME280;53798;51.680;5.976;2022-10-23T00:26:40;101317.13;;;11.49;93.92
66887;BME280;53798;51.680;5.976;2022-10-23T00:29:08;101306.56;;;11.49;93.81
66887;BME280;53798;51.680;5.976;2022-10-23T00:31:36;101316.28;;;11.49;94.05
66887;BME280;53798;51.680;5.976;2022-10-23T00:34:04;101317.13;;;11.49;94.06
66887;BME280;53798;51.680;5.976;2022-10-23T00:36:34;101318.09;;;11.47;94.20
66887;BME280;53798;51.680;5.976;2022-10-23T00:39:02;101311.94;;;11.46;94.26
66887;BME280;53798;51.680;5.976;2022-10-23T00:41:30;101319.84;;;11.46;94.19
66887;BME280;53798;51.680;5.976;2022-10-23T00:46:54;101316.34;;;11.46;94.19
66887;BME280;53798;51.680;5.976;2022-10-23T00:49:22;101309.28;;;11.48;94.25
66887;BME280;53798;51.680;5.976;2022-10-23T00:51:51;101308.38;;;11.47;94.50
66887;BME280;53798;51.680;5.976;2022-10-23T00:54:25;101313.66;;;11.47;94.43
66887;BME280;53798;51.680;5.976;2022-10-23T00:56:58;101316.31;;;11.47;94.54
66887;BME280;53798;51.680;5.976;2022-10-23T00:59:28;101303.22;;;11.44;94.41
66887;BME280;53798;51.680;5.976;2022-10-23T01:01:57;101308.50;;;11.44;94.50
66887;BME280;53798;51.680;5.976;2022-10-23T01:04:25;101305.88;;;11.43;94.44
66887;BME280;53798;51.680;5.976;2022-10-23T01:13:14;101298.72;;;11.46;95.15
66887;BME280;53798;51.680;5.976;2022-10-23T01:16:06;101299.56;;;11.48;95.15
66887;BME280;53798;51.680;5.976;2022-10-23T01:28:10;101301.34;;;11.48;95.31
66887;BME280;53798;51.680;5.976;2022-10-23T01:30:44;101297.81;;;11.47;95.27
66887;BME280;53798;51.680;5.976;2022-10-23T01:33:16;101294.34;;;11.47;95.52
66887;BME280;53798;51.680;5.976;2022-10-23T01:35:58;101281.13;;;11.47;95.51
66887;BME280;53798;51.680;5.976;2022-10-23T01:41:49;101279.22;;;11.52;95.47
66887;BME280;53798;51.680;5.976;2022-10-23T01:44:36;101282.75;;;11.51;95.48
66887;BME280;53798;51.680;5.976;2022-10-23T01:47:09;101288.03;;;11.53;95.46
66887;BME280;53798;51.680;5.976;2022-10-23T01:49:52;101283.59;;;11.53;95.55
66887;BME280;53798;51.680;5.976;2022-10-23T01:52:24;101278.38;;;11.52;95.44
66887;BME280;53798;51.680;5.976;2022-10-23T01:54:55;101277.47;;;11.53;95.43
66887;BME280;53798;51.680;5.976;2022-10-23T01:57:30;101274.84;;;11.51;95.50
66887;BME280;53798;51.680;5.976;2022-10-23T02:00:05;101273.09;;;11.52;95.48
66887;BME280;53798;51.680;5.976;2022-10-23T02:02:50;101266.97;;;11.49;95.49
66887;BME280;53798;51.680;5.976;2022-10-23T02:05:28;101267.75;;;11.53;95.42
66887;BME280;53798;51.680;5.976;2022-10-23T02:08:01;101256.34;;;11.53;95.63
66887;BME280;53798;51.680;5.976;2022-10-23T02:10:36;101255.38;;;11.55;96.01
66887;BME280;53798;51.680;5.976;2022-10-23T02:13:28;101244.00;;;11.53;95.84
66887;BME280;53798;51.680;5.976;2022-10-23T02:16:26;101252.78;;;11.54;95.72
66887;BME280;53798;51.680;5.976;2022-10-23T02:19:07;101253.69;;;11.53;95.80
66887;BME280;53798;51.680;5.976;2022-10-23T02:22:05;101253.69;;;11.53;95.45
66887;BME280;53798;51.680;5.976;2022-10-23T02:24:56;101253.81;;;11.48;95.77
66887;BME280;53798;51.680;5.976;2022-10-23T02:27:34;101247.78;;;11.43;95.77
66887;BME280;53798;51.680;5.976;2022-10-23T02:30:09;101252.22;;;11.42;95.78
66887;BME280;53798;51.680;5.976;2022-10-23T02:32:45;101247.91;;;11.38;95.75
66887;BME280;53798;51.680;5.976;2022-10-23T02:35:18;101248.03;;;11.33;95.96
66887;BME280;53798;51.680;5.976;2022-10-23T02:37:53;101252.59;;;11.28;95.82
66887;BME280;53798;51.680;5.976;2022-10-23T02:40:37;101255.31;;;11.25;95.65
66887;BME280;53798;51.680;5.976;2022-10-23T02:43:15;101258.91;;;11.21;95.80
66887;BME280;53798;51.680;5.976;2022-10-23T02:46:17;101253.69;;;11.19;95.89
66887;BME280;53798;51.680;5.976;2022-10-23T02:51:58;101253.81;;;11.15;95.73
66887;BME280;53798;51.680;5.976;2022-10-23T02:57:53;101235.41;;;11.12;95.86
66887;BME280;53798;51.680;5.976;2022-10-23T03:00:31;101236.38;;;11.09;95.89
66887;BME280;53798;51.680;5.976;2022-10-23T03:03:08;101221.38;;;11.10;96.08
66887;BME280;53798;51.680;5.976;2022-10-23T03:05:43;101212.63;;;11.09;96.37
66887;BME280;53798;51.680;5.976;2022-10-23T03:08:14;101201.16;;;11.10;96.55
66887;BME280;53798;51.680;5.976;2022-10-23T03:10:41;101193.25;;;11.10;96.84
66887;BME280;53798;51.680;5.976;2022-10-23T03:13:10;101185.28;;;11.12;96.98
66887;BME280;53798;51.680;5.976;2022-10-23T03:15:42;101184.31;;;11.14;97.35
66887;BME280;53798;51.680;5.976;2022-10-23T03:18:13;101186.88;;;11.17;97.54
66887;BME280;53798;51.680;5.976;2022-10-23T03:20:45;101181.53;;;11.21;97.76
66887;BME280;53798;51.680;5.976;2022-10-23T03:23:13;101184.13;;;11.22;97.96
66887;BME280;53798;51.680;5.976;2022-10-23T03:25:41;101182.38;;;11.23;97.97
66887;BME280;53798;51.680;5.976;2022-10-23T03:28:12;101176.13;;;11.25;97.93
66887;BME280;53798;51.680;5.976;2022-10-23T03:30:39;101174.25;;;11.29;98.13
66887;BME280;53798;51.680;5.976;2022-10-23T03:33:06;101170.66;;;11.31;98.18
66887;BME280;53798;51.680;5.976;2022-10-23T03:35:34;101162.72;;;11.33;98.40
66887;BME280;53798;51.680;5.976;2022-10-23T03:38:02;101161.81;;;11.34;98.28
66887;BME280;53798;51.680;5.976;2022-10-23T03:40:29;101150.31;;;11.35;98.40
66887;BME280;53798;51.680;5.976;2022-10-23T03:42:56;101159.00;;;11.40;98.71
66887;BME280;53798;51.680;5.976;2022-10-23T03:45:24;101157.13;;;11.44;98.86
66887;BME280;53798;51.680;5.976;2022-10-23T03:47:52;101157.06;;;11.47;99.09
66887;BME280;53798;51.680;5.976;2022-10-23T03:50:19;101158.78;;;11.48;98.97
66887;BME280;53798;51.680;5.976;2022-10-23T03:52:46;101156.09;;;11.49;99.05
66887;BME280;53798;51.680;5.976;2022-10-23T03:55:14;101142.69;;;11.56;99.11
66887;BME280;53798;51.680;5.976;2022-10-23T03:57:41;101138.25;;;11.58;99.18
66887;BME280;53798;51.680;5.976;2022-10-23T04:00:10;101132.00;;;11.60;99.13
66887;BME280;53798;51.680;5.976;2022-10-23T04:02:45;101126.69;;;11.62;99.22
66887;BME280;53798;51.680;5.976;2022-10-23T04:05:13;101136.34;;;11.63;99.35
66887;BME280;53798;51.680;5.976;2022-10-23T04:07:50;101131.00;;;11.64;99.18
66887;BME280;53798;51.680;5.976;2022-10-23T04:10:17;101129.22;;;11.65;99.09
66887;BME280;53798;51.680;5.976;2022-10-23T04:12:44;101126.50;;;11.68;99.11
66887;BME280;53798;51.680;5.976;2022-10-23T04:15:11;101120.34;;;11.68;99.14
66887;BME280;53798;51.680;5.976;2022-10-23T04:17:41;101115.91;;;11.70;99.15
66887;BME280;53798;51.680;5.976;2022-10-23T04:20:09;101124.66;;;11.70;99.02
66887;BME280;53798;51.680;5.976;2022-10-23T04:22:36;101119.38;;;11.70;99.01
66887;BME280;53798;51.680;5.976;2022-10-23T04:25:05;101115.78;;;11.73;99.18
66887;BME280;53798;51.680;5.976;2022-10-23T04:27:33;101106.03;;;11.75;99.17
66887;BME280;53798;51.680;5.976;2022-10-23T04:30:01;101103.34;;;11.76;99.21
66887;BME280;53798;51.680;5.976;2022-10-23T04:32:29;101098.84;;;11.80;99.27
66887;BME280;53798;51.680;5.976;2022-10-23T04:34:57;101097.88;;;11.83;99.29
66887;BME280;53798;51.680;5.976;2022-10-23T04:37:25;101092.53;;;11.84;98.94
66887;BME280;53798;51.680;5.976;2022-10-23T04:39:53;101092.53;;;11.84;99.30
66887;BME280;53798;51.680;5.976;2022-10-23T04:42:20;101095.09;;;11.87;99.34
66887;BME280;53798;51.680;5.976;2022-10-23T04:44:48;101098.59;;;11.88;99.39
66887;BME280;53798;51.680;5.976;2022-10-23T04:47:15;101099.47;;;11.88;99.32
66887;BME280;53798;51.680;5.976;2022-10-23T04:49:54;101095.03;;;11.89;99.10
66887;BME280;53798;51.680;5.976;2022-10-23T04:52:40;101095.84;;;11.91;99.13
66887;BME280;53798;51.680;5.976;2022-10-23T04:55:34;101093.22;;;11.91;99.13
66887;BME280;53798;51.680;5.976;2022-10-23T04:58:11;101092.31;;;11.92;99.13
66887;BME280;53798;51.680;5.976;2022-10-23T05:00:38;101084.38;;;11.92;98.96
66887;BME280;53798;51.680;5.976;2022-10-23T05:03:05;101098.44;;;11.92;98.90
66887;BME280;53798;51.680;5.976;2022-10-23T05:05:37;101092.25;;;11.93;99.07
66887;BME280;53798;51.680;5.976;2022-10-23T05:08:22;101093.94;;;11.98;99.33
66887;BME280;53798;51.680;5.976;2022-10-23T05:11:27;101104.38;;;12.01;99.32
66887;BME280;53798;51.680;5.976;2022-10-23T05:13:54;101096.31;;;12.05;99.43
66887;BME280;53798;51.680;5.976;2022-10-23T05:16:53;101089.94;;;12.11;99.42
66887;BME280;53798;51.680;5.976;2022-10-23T05:19:40;101089.81;;;12.16;99.59
66887;BME280;53798;51.680;5.976;2022-10-23T05:22:12;101089.69;;;12.19;99.52
66887;BME280;53798;51.680;5.976;2022-10-23T05:24:50;101081.69;;;12.22;99.17
66887;BME280;53798;51.680;5.976;2022-10-23T05:27:21;101071.00;;;12.25;99.19
66887;BME280;53798;51.680;5.976;2022-10-23T05:29:50;101071.00;;;12.25;99.00
66887;BME280;53798;51.680;5.976;2022-10-23T05:32:20;101070.19;;;12.23;98.88
66887;BME280;53798;51.680;5.976;2022-10-23T05:34:49;101069.28;;;12.24;98.95
66887;BME280;53798;51.680;5.976;2022-10-23T05:37:17;101068.41;;;12.23;98.77
66887;BME280;53798;51.680;5.976;2022-10-23T05:39:45;101068.41;;;12.23;98.86
66887;BME280;53798;51.680;5.976;2022-10-23T05:42:16;101064.84;;;12.24;98.77
66887;BME280;53798;51.680;5.976;2022-10-23T05:44:44;101062.97;;;12.28;98.96
66887;BME280;53798;51.680;5.976;2022-10-23T05:47:32;101066.41;;;12.30;99.07
66887;BME280;53798;51.680;5.976;2022-10-23T05:50:15;101061.94;;;12.32;99.02
66887;BME280;53798;51.680;5.976;2022-10-23T05:52:51;101063.56;;;12.36;99.00
66887;BME280;53798;51.680;5.976;2022-10-23T05:55:28;101055.59;;;12.38;98.94
66887;BME280;53798;51.680;5.976;2022-10-23T05:58:13;101052.84;;;12.41;98.93
66887;BME280;53798;51.680;5.976;2022-10-23T06:01:06;101046.69;;;12.40;98.81
66887;BME280;53798;51.680;5.976;2022-10-23T06:03:59;101043.97;;;12.42;98.73
66887;BME280;53798;51.680;5.976;2022-10-23T06:06:48;101046.63;;;12.42;98.55
66887;BME280;53798;51.680;5.976;2022-10-23T06:09:15;101038.75;;;12.40;98.62
66887;BME280;53798;51.680;5.976;2022-10-23T06:11:46;101031.75;;;12.39;98.74
66887;BME280;53798;51.680;5.976;2022-10-23T06:14:18;101037.91;;;12.40;98.51
66887;BME280;53798;51.680;5.976;2022-10-23T06:16:47;101034.38;;;12.39;98.50
66887;BME280;53798;51.680;5.976;2022-10-23T06:19:15;101032.66;;;12.38;98.48
66887;BME280;53798;51.680;5.976;2022-10-23T06:21:43;101028.19;;;12.40;98.45
66887;BME280;53798;51.680;5.976;2022-10-23T06:24:13;101023.88;;;12.38;98.41
66887;BME280;53798;51.680;5.976;2022-10-23T06:26:50;101026.50;;;12.38;98.48
66887;BME280;53798;51.680;5.976;2022-10-23T06:29:21;101030.88;;;12.39;98.52
66887;BME280;53798;51.680;5.976;2022-10-23T06:31:50;101013.28;;;12.38;98.50
66887;BME280;53798;51.680;5.976;2022-10-23T06:34:17;101018.53;;;12.39;98.47
66887;BME280;53798;51.680;5.976;2022-10-23T06:36:45;101015.03;;;12.39;98.54
66887;BME280;53798;51.680;5.976;2022-10-23T06:39:29;101017.59;;;12.40;98.54
66887;BME280;53798;51.680;5.976;2022-10-23T06:42:24;101020.19;;;12.42;98.44
66887;BME280;53798;51.680;5.976;2022-10-23T06:44:55;101015.53;;;12.49;98.68
66887;BME280;53798;51.680;5.976;2022-10-23T06:47:42;101021.41;;;12.57;98.99
66887;BME280;53798;51.680;5.976;2022-10-23T06:50:28;101021.06;;;12.68;98.89
66887;BME280;53798;51.680;5.976;2022-10-23T06:52:59;101016.44;;;12.73;98.71
66887;BME280;53798;51.680;5.976;2022-10-23T06:55:26;101013.63;;;12.78;98.51
66887;BME280;53798;51.680;5.976;2022-10-23T06:57:55;101010.78;;;12.84;98.32
66887;BME280;53798;51.680;5.976;2022-10-23T07:00:23;100999.13;;;12.88;98.34
66887;BME280;53798;51.680;5.976;2022-10-23T07:02:52;101007.72;;;12.95;98.13
66887;BME280;53798;51.680;5.976;2022-10-23T07:05:19;100998.66;;;13.02;98.07
66887;BME280;53798;51.680;5.976;2022-10-23T07:07:47;100999.31;;;13.07;97.81
66887;BME280;53798;51.680;5.976;2022-10-23T07:10:21;101004.50;;;13.10;97.40
66887;BME280;53798;51.680;5.976;2022-10-23T07:12:57;101000.69;;;13.17;97.61
66887;BME280;53798;51.680;5.976;2022-10-23T07:15:36;100997.75;;;13.25;97.44
66887;BME280;53798;51.680;5.976;2022-10-23T07:18:09;101000.16;;;13.31;97.19
66887;BME280;53798;51.680;5.976;2022-10-23T07:21:00;100996.47;;;13.35;96.84
66887;BME280;53798;51.680;5.976;2022-10-23T07:23:29;101000.78;;;13.38;96.63
66887;BME280;53798;51.680;5.976;2022-10-23T07:26:02;100993.47;;;13.45;96.76
66887;BME280;53798;51.680;5.976;2022-10-23T07:28:33;100991.50;;;13.50;96.18
66887;BME280;53798;51.680;5.976;2022-10-23T07:31:01;100990.53;;;13.53;96.12
66887;BME280;53798;51.680;5.976;2022-10-23T07:33:49;100992.84;;;13.60;96.08
66887;BME280;53798;51.680;5.976;2022-10-23T07:36:19;100991.75;;;13.66;95.65
66887;BME280;53798;51.680;5.976;2022-10-23T07:38:47;100993.41;;;13.69;95.27
66887;BME280;53798;51.680;5.976;2022-10-23T07:41:14;100987.88;;;13.75;94.97
66887;BME280;53798;51.680;5.976;2022-10-23T07:43:43;100980.66;;;13.78;94.89
66887;BME280;53798;51.680;5.976;2022-10-23T07:46:11;100981.25;;;13.85;94.66
66887;BME280;53798;51.680;5.976;2022-10-23T07:48:46;100974.69;;;13.94;94.39
66887;BME280;53798;51.680;5.976;2022-10-23T07:51:15;100970.06;;;13.99;94.04
66887;BME280;53798;51.680;5.976;2022-10-23T07:53:50;100969.03;;;14.03;94.29
66887;BME280;53798;51.680;5.976;2022-10-23T07:56:36;100967.81;;;14.10;93.72
66887;BME280;53798;51.680;5.976;2022-10-23T07:59:31;100961.41;;;14.16;93.16
66887;BME280;53798;51.680;5.976;2022-10-23T08:02:14;100961.91;;;14.24;93.06
66887;BME280;53798;51.680;5.976;2022-10-23T08:04:47;100964.25;;;14.32;92.96
66887;BME280;53798;51.680;5.976;2022-10-23T08:07:25;100956.13;;;14.35;92.58
66887;BME280;53798;51.680;5.976;2022-10-23T08:09:55;100955.91;;;14.40;92.29
66887;BME280;53798;51.680;5.976;2022-10-23T08:12:22;100958.41;;;14.44;91.88
66887;BME280;53798;51.680;5.976;2022-10-23T08:14:49;100950.28;;;14.48;91.70
66887;BME280;53798;51.680;5.976;2022-10-23T08:17:17;100950.94;;;14.53;91.59
66887;BME280;53798;51.680;5.976;2022-10-23T08:20:14;100962.28;;;14.56;91.26
66887;BME280;53798;51.680;5.976;2022-10-23T08:22:43;100950.44;;;14.64;91.32
66887;BME280;53798;51.680;5.976;2022-10-23T08:25:15;100953.72;;;14.70;90.43
66887;BME280;53798;51.680;5.976;2022-10-23T08:27:44;100952.78;;;14.71;90.13
66887;BME280;53798;51.680;5.976;2022-10-23T08:30:13;100945.75;;;14.70;90.14
66887;BME280;53798;51.680;5.976;2022-10-23T08:32:42;100943.91;;;14.72;90.01
66887;BME280;53798;51.680;5.976;2022-10-23T08:35:13;100937.72;;;14.72;90.13
66887;BME280;53798;51.680;5.976;2022-10-23T08:37:40;100935.03;;;14.73;89.92
66887;BME280;53798;51.680;5.976;2022-10-23T08:40:17;100942.75;;;14.78;89.87
66887;BME280;53798;51.680;5.976;2022-10-23T08:46:24;100937.81;;;14.89;89.67
66887;BME280;53798;51.680;5.976;2022-10-23T08:49:47;100927.03;;;14.93;89.57
66887;BME280;53798;51.680;5.976;2022-10-23T08:52:24;100925.09;;;14.96;89.59
66887;BME280;53798;51.680;5.976;2022-10-23T08:55:14;100925.66;;;15.03;89.36
66887;BME280;53798;51.680;5.976;2022-10-23T08:57:48;100927.88;;;15.12;88.93
66887;BME280;53798;51.680;5.976;2022-10-23T09:00:24;100917.91;;;15.17;88.99
66887;BME280;53798;51.680;5.976;2022-10-23T09:02:52;100921.97;;;15.25;89.00
66887;BME280;53798;51.680;5.976;2022-10-23T09:06:07;100916.44;;;15.29;88.67
66887;BME280;53798;51.680;5.976;2022-10-23T09:08:38;100910.84;;;15.35;88.70
66887;BME280;53798;51.680;5.976;2022-10-23T09:12:25;100915.75;;;15.43;88.25
66887;BME280;53798;51.680;5.976;2022-10-23T09:17:24;100912.97;;;15.46;88.36
66887;BME280;53798;51.680;5.976;2022-10-23T09:20:19;100907.31;;;15.52;87.56
66887;BME280;53798;51.680;5.976;2022-10-23T09:22:53;100906.25;;;15.57;87.67
66887;BME280;53798;51.680;5.976;2022-10-23T09:25:32;100909.47;;;15.63;87.45
66887;BME280;53798;51.680;5.976;2022-10-23T09:28:03;100900.38;;;15.67;87.23
66887;BME280;53798;51.680;5.976;2022-10-23T09:30:35;100892.81;;;15.77;85.91
66887;BME280;53798;51.680;5.976;2022-10-23T09:33:24;100875.84;;;15.80;85.12
66887;BME280;53798;51.680;5.976;2022-10-23T09:39:04;100860.13;;;15.75;85.65
66887;BME280;53798;51.680;5.976;2022-10-23T09:41:38;100867.09;;;15.78;85.76
66887;BME280;53798;51.680;5.976;2022-10-23T09:44:26;100862.28;;;15.86;84.86
66887;BME280;53798;51.680;5.976;2022-10-23T09:47:08;100866.47;;;15.90;84.82
66887;BME280;53798;51.680;5.976;2022-10-23T09:49:46;100868.91;;;15.95;85.24
66887;BME280;53798;51.680;5.976;2022-10-23T09:57:32;100857.28;;;16.13;84.32
66887;BME280;53798;51.680;5.976;2022-10-23T10:00:18;100850.97;;;16.16;84.43
66887;BME280;53798;51.680;5.976;2022-10-23T10:03:17;100839.97;;;16.22;84.01
66887;BME280;53798;51.680;5.976;2022-10-23T10:06:22;100845.06;;;16.27;82.78
66887;BME280;53798;51.680;5.976;2022-10-23T10:08:58;100842.41;;;16.27;83.04
66887;BME280;53798;51.680;5.976;2022-10-23T10:11:45;100842.25;;;16.30;83.00
66887;BME280;53798;51.680;5.976;2022-10-23T10:20:22;100834.78;;;16.37;82.96
66887;BME280;53798;51.680;5.976;2022-10-23T10:22:55;100824.81;;;16.40;82.53
66887;BME280;53798;51.680;5.976;2022-10-23T10:25:35;100822.06;;;16.42;81.49
66887;BME280;53798;51.680;5.976;2022-10-23T10:31:25;100823.44;;;16.49;81.61
66887;BME280;53798;51.680;5.976;2022-10-23T10:36:54;100805.34;;;16.56;81.20
66887;BME280;53798;51.680;5.976;2022-10-23T10:39:35;100786.63;;;16.57;81.17
66887;BME280;53798;51.680;5.976;2022-10-23T10:47:40;100771.41;;;16.59;81.36
66887;BME280;53798;51.680;5.976;2022-10-23T10:50:42;100747.41;;;16.61;80.53
66887;BME280;53798;51.680;5.976;2022-10-23T10:54:23;100740.25;;;16.61;80.54
66887;BME280;53798;51.680;5.976;2022-10-23T10:56:43;100735.72;;;16.64;80.38
66887;BME280;53798;51.680;5.976;2022-10-23T10:59:18;100741.56;;;16.70;80.26
66887;BME280;53798;51.680;5.976;2022-10-23T11:08:33;100742.97;;;16.92;80.31
66887;BME280;53798;51.680;5.976;2022-10-23T11:11:31;100728.38;;;16.99;79.83
66887;BME280;53798;51.680;5.976;2022-10-23T11:14:24;100719.00;;;17.08;79.47
66887;BME280;53798;51.680;5.976;2022-10-23T11:17:14;100719.09;;;17.21;78.40
66887;BME280;53798;51.680;5.976;2022-10-23T11:20:04;100718.72;;;17.27;78.23
66887;BME280;53798;51.680;5.976;2022-10-23T11:35:07;100676.00;;;17.72;76.06
66887;BME280;53798;51.680;5.976;2022-10-23T11:37:59;100682.56;;;17.81;76.32
66887;BME280;53798;51.680;5.976;2022-10-23T11:40:46;100672.16;;;17.91;76.12
66887;BME280;53798;51.680;5.976;2022-10-23T11:43:34;100644.09;;;17.99;76.17
66887;BME280;53798;51.680;5.976;2022-10-23T11:48:51;100648.13;;;18.20;75.03
66887;BME280;53798;51.680;5.976;2022-10-23T11:54:26;100650.75;;;18.47;74.21
66887;BME280;53798;51.680;5.976;2022-10-23T11:57:20;100659.38;;;18.65;74.20
66887;BME280;53798;51.680;5.976;2022-10-23T12:02:36;100642.16;;;18.97;73.45
66887;BME280;53798;51.680;5.976;2022-10-23T12:05:06;100642.16;;;19.09;73.13
66887;BME280;53798;51.680;5.976;2022-10-23T12:07:57;100638.94;;;19.30;71.85
66887;BME280;53798;51.680;5.976;2022-10-23T12:10:34;100618.84;;;19.37;70.37
66887;BME280;53798;51.680;5.976;2022-10-23T12:16:00;100616.91;;;19.39;70.62
66887;BME280;53798;51.680;5.976;2022-10-23T12:18:27;100614.38;;;19.38;69.97
66887;BME280;53798;51.680;5.976;2022-10-23T12:20:59;100609.00;;;19.38;69.32
66887;BME280;53798;51.680;5.976;2022-10-23T12:36:02;100610.69;;;19.52;69.27
66887;BME280;53798;51.680;5.976;2022-10-23T12:38:45;100604.91;;;19.58;69.80
66887;BME280;53798;51.680;5.976;2022-10-23T12:41:16;100594.00;;;19.61;69.59
66887;BME280;53798;51.680;5.976;2022-10-23T12:44:00;100595.56;;;19.64;68.55
66887;BME280;53798;51.680;5.976;2022-10-23T12:46:38;100581.59;;;19.60;68.30
66887;BME280;53798;51.680;5.976;2022-10-23T12:49:16;100585.22;;;19.59;69.14
66887;BME280;53798;51.680;5.976;2022-10-23T12:52:01;100578.91;;;19.60;68.39
66887;BME280;53798;51.680;5.976;2022-10-23T12:54:37;100571.22;;;19.55;68.74
66887;BME280;53798;51.680;5.976;2022-10-23T12:57:21;100572.31;;;19.53;68.31
66887;BME280;53798;51.680;5.976;2022-10-23T12:59:57;100573.38;;;19.50;69.02
66887;BME280;53798;51.680;5.976;2022-10-23T13:02:30;100570.81;;;19.49;68.58
66887;BME280;53798;51.680;5.976;2022-10-23T13:05:04;100561.09;;;19.48;69.00
66887;BME280;53798;51.680;5.976;2022-10-23T13:07:36;100559.50;;;19.45;69.23
66887;BME280;53798;51.680;5.976;2022-10-23T13:10:17;100556.81;;;19.45;69.20
66887;BME280;53798;51.680;5.976;2022-10-23T13:13:04;100548.16;;;19.42;69.51
66887;BME280;53798;51.680;5.976;2022-10-23T13:15:41;100541.13;;;19.40;69.73
66887;BME280;53798;51.680;5.976;2022-10-23T13:18:11;100542.28;;;19.36;70.03
66887;BME280;53798;51.680;5.976;2022-10-23T13:23:32;100530.00;;;19.34;70.01
66887;BME280;53798;51.680;5.976;2022-10-23T13:26:21;100524.78;;;19.32;70.35
66887;BME280;53798;51.680;5.976;2022-10-23T13:29:01;100518.78;;;19.29;70.06
66887;BME280;53798;51.680;5.976;2022-10-23T13:31:35;100516.03;;;19.30;70.16
66887;BME280;53798;51.680;5.976;2022-10-23T13:34:15;100509.81;;;19.30;70.33
66887;BME280;53798;51.680;5.976;2022-10-23T13:36:53;100504.59;;;19.28;70.08
66887;BME280;53798;51.680;5.976;2022-10-23T13:39:31;100504.91;;;19.23;70.29
66887;BME280;53798;51.680;5.976;2022-10-23T13:42:09;100502.25;;;19.23;70.37
66887;BME280;53798;51.680;5.976;2022-10-23T13:44:39;100494.34;;;19.22;70.11
66887;BME280;53798;51.680;5.976;2022-10-23T13:47:13;100487.19;;;19.22;70.68
66887;BME280;53798;51.680;5.976;2022-10-23T13:49:43;100487.19;;;19.22;70.23
66887;BME280;53798;51.680;5.976;2022-10-23T13:52:19;100481.81;;;19.22;70.58
66887;BME280;53798;51.680;5.976;2022-10-23T13:54:51;100474.91;;;19.20;70.32
66887;BME280;53798;51.680;5.976;2022-10-23T13:57:18;100469.56;;;19.20;69.84
66887;BME280;53798;51.680;5.976;2022-10-23T13:59:45;100472.44;;;19.17;70.23
66887;BME280;53798;51.680;5.976;2022-10-23T14:02:20;100466.25;;;19.16;70.05
66887;BME280;53798;51.680;5.976;2022-10-23T14:04:50;100459.41;;;19.12;70.12
66887;BME280;53798;51.680;5.976;2022-10-23T14:07:18;100461.13;;;19.13;69.99
66887;BME280;53798;51.680;5.976;2022-10-23T14:09:45;100463.59;;;19.16;70.17
66887;BME280;53798;51.680;5.976;2022-10-23T14:12:12;100461.13;;;19.13;70.22
66887;BME280;53798;51.680;5.976;2022-10-23T14:14:39;100450.78;;;19.08;69.98
66887;BME280;53798;51.680;5.976;2022-10-23T14:17:06;100454.53;;;19.06;70.16
66887;BME280;53798;51.680;5.976;2022-10-23T14:19:34;100451.94;;;19.04;70.77
66887;BME280;53798;51.680;5.976;2022-10-23T14:22:02;100458.25;;;19.03;70.80
66887;BME280;53798;51.680;5.976;2022-10-23T14:24:29;100452.81;;;19.05;70.71
66887;BME280;53798;51.680;5.976;2022-10-23T14:26:56;100452.81;;;19.05;70.12
66887;BME280;53798;51.680;5.976;2022-10-23T14:29:25;100448.56;;;19.02;70.56
66887;BME280;53798;51.680;5.976;2022-10-23T14:31:52;100445.13;;;19.00;70.46
66887;BME280;53798;51.680;5.976;2022-10-23T14:34:21;100436.50;;;18.97;71.05
66887;BME280;53798;51.680;5.976;2022-10-23T14:36:48;100429.44;;;18.96;71.37
66887;BME280;53798;51.680;5.976;2022-10-23T14:39:29;100433.09;;;18.95;70.83
66887;BME280;53798;51.680;5.976;2022-10-23T14:41:56;100445.66;;;18.92;70.81
66887;BME280;53798;51.680;5.976;2022-10-23T14:44:23;100435.19;;;18.89;70.86
66887;BME280;53798;51.680;5.976;2022-10-23T14:46:51;100439.06;;;18.85;70.70
66887;BME280;53798;51.680;5.976;2022-10-23T14:49:18;100435.84;;;18.80;71.13
66887;BME280;53798;51.680;5.976;2022-10-23T14:51:45;100436.28;;;18.74;71.22
66887;BME280;53798;51.680;5.976;2022-10-23T14:54:12;100441.09;;;18.69;71.56
66887;BME280;53798;51.680;5.976;2022-10-23T14:56:40;100448.38;;;18.67;72.02
66887;BME280;53798;51.680;5.976;2022-10-23T14:59:07;100447.72;;;18.63;71.95
66887;BME280;53798;51.680;5.976;2022-10-23T15:01:40;100442.50;;;18.61;72.22
66887;BME280;53798;51.680;5.976;2022-10-23T15:04:13;100437.59;;;18.55;72.20
66887;BME280;53798;51.680;5.976;2022-10-23T15:06:42;100424.91;;;18.46;72.62
66887;BME280;53798;51.680;5.976;2022-10-23T15:09:13;100414.75;;;18.38;72.48
66887;BME280;53798;51.680;5.976;2022-10-23T15:11:48;100417.63;;;18.35;73.02
66887;BME280;53798;51.680;5.976;2022-10-23T15:14:15;100404.81;;;18.27;73.44
66887;BME280;53798;51.680;5.976;2022-10-23T15:16:42;100419.34;;;18.23;73.65
66887;BME280;53798;51.680;5.976;2022-10-23T15:19:16;100421.38;;;18.20;73.64